Time;durP1;ratioP1;P1;durP2;ratioP2;P2;SDS_P1;SDS_P2;PMS_P1;PMS_P2;Temp;Humidity;BMP_temperature;BMP_pressure;BME280_temperature;BME280_humidity;BME280_pressure;Samples;Min_cycle;Max_cycle;Signal;HPM_P1;HPM_P2
2021/12/03 00:00:21;;;;;;;3.80;0.83;;;10.10;99.90;;;;;;5037020;28;20689;-67
2021/12/03 00:02:47;;;;;;;1.33;0.93;;;10.10;99.90;;;;;;5018673;28;20207;-67
2021/12/03 00:05:14;;;;;;;1.47;0.83;;;10.00;99.90;;;;;;5007463;28;20230;-67
2021/12/03 00:07:42;;;;;;;1.33;0.80;;;10.00;99.90;;;;;;5000404;28;20188;-65
2021/12/03 00:10:12;;;;;;;1.67;0.83;;;10.10;99.90;;;;;;5000953;28;20267;-65
2021/12/03 00:12:40;;;;;;;3.93;1.10;;;10.00;99.90;;;;;;4997812;28;20673;-65
2021/12/03 00:15:09;;;;;;;1.90;0.90;;;10.00;99.90;;;;;;4997001;28;20256;-64
2021/12/03 00:17:36;;;;;;;2.00;0.90;;;10.00;99.90;;;;;;5016880;28;20192;-65
2021/12/03 00:20:08;;;;;;;1.57;0.90;;;10.00;99.90;;;;;;5031582;28;20189;-64
2021/12/03 00:22:34;;;;;;;2.90;0.87;;;10.10;99.90;;;;;;5004610;28;20645;-65
2021/12/03 00:25:01;;;;;;;1.83;0.77;;;10.10;99.90;;;;;;5006393;28;20258;-66
2021/12/03 00:27:27;;;;;;;4.63;0.73;;;10.10;99.90;;;;;;5005270;28;20236;-66
2021/12/03 00:29:53;;;;;;;5.53;1.10;;;10.10;99.90;;;;;;4985999;28;20216;-65
2021/12/03 00:32:20;;;;;;;0.73;0.70;;;10.00;99.90;;;;;;5003590;28;20223;-65
2021/12/03 00:34:46;;;;;;;1.97;0.70;;;10.00;99.90;;;;;;5006052;28;20212;-65
2021/12/03 00:37:12;;;;;;;1.63;1.10;;;10.00;99.90;;;;;;5019116;28;20212;-64
2021/12/03 00:39:39;;;;;;;2.23;0.93;;;10.00;99.90;;;;;;5020448;28;20181;-64
2021/12/03 00:42:05;;;;;;;2.20;0.80;;;10.00;99.90;;;;;;5003930;28;20228;-65
2021/12/03 00:44:32;;;;;;;2.50;0.90;;;10.00;99.90;;;;;;5006721;28;20642;-64
2021/12/03 00:46:59;;;;;;;2.63;0.70;;;9.90;99.90;;;;;;5006240;28;20239;-64
2021/12/03 00:49:27;;;;;;;3.07;0.80;;;9.90;99.90;;;;;;5007794;28;20255;-64
2021/12/03 00:51:54;;;;;;;2.20;1.00;;;9.90;99.90;;;;;;5000435;28;20262;-64
2021/12/03 00:54:20;;;;;;;2.17;0.80;;;9.90;99.90;;;;;;5005052;28;20213;-64
2021/12/03 00:56:46;;;;;;;2.87;1.10;;;9.90;99.90;;;;;;5004693;28;20610;-64
2021/12/03 00:59:13;;;;;;;1.47;0.77;;;9.90;99.90;;;;;;5007045;28;20189;-63
2021/12/03 01:01:39;;;;;;;1.33;0.87;;;9.90;99.90;;;;;;5004334;28;20549;-64
2021/12/03 01:04:07;;;;;;;2.07;0.90;;;9.90;99.90;;;;;;5037005;28;20704;-64
2021/12/03 01:06:33;;;;;;;3.77;0.80;;;9.90;99.90;;;;;;5007863;28;20525;-63
2021/12/03 01:08:59;;;;;;;1.60;0.90;;;9.80;99.90;;;;;;5037547;28;20757;-64
2021/12/03 01:11:25;;;;;;;3.70;0.87;;;9.80;99.90;;;;;;4987692;28;20203;-63
2021/12/03 01:13:57;;;;;;;3.43;0.83;;;9.80;99.90;;;;;;5006042;28;20225;-64
2021/12/03 01:16:23;;;;;;;4.67;1.10;;;9.80;99.90;;;;;;5022061;28;20280;-63
2021/12/03 01:18:49;;;;;;;2.63;0.73;;;9.80;99.90;;;;;;4989486;28;20177;-63
2021/12/03 01:21:16;;;;;;;3.80;0.77;;;9.80;99.90;;;;;;5035346;28;20212;-64
2021/12/03 01:23:44;;;;;;;3.70;1.03;;;9.80;99.90;;;;;;4988515;28;20198;-64
2021/12/03 01:26:10;;;;;;;2.70;1.10;;;9.90;99.90;;;;;;5007585;28;20197;-63
2021/12/03 01:28:37;;;;;;;5.40;0.70;;;9.90;99.90;;;;;;5006501;28;20238;-64
2021/12/03 01:31:04;;;;;;;2.90;1.00;;;9.90;99.90;;;;;;4987725;28;20215;-64
2021/12/03 01:33:30;;;;;;;2.07;0.73;;;10.00;99.90;;;;;;5004725;28;20208;-63
2021/12/03 01:35:56;;;;;;;2.07;0.70;;;10.00;99.90;;;;;;5004962;28;20275;-63
2021/12/03 01:38:23;;;;;;;1.73;0.83;;;10.00;99.90;;;;;;5021578;28;20197;-64
2021/12/03 01:40:49;;;;;;;3.33;0.90;;;10.00;99.90;;;;;;5004347;28;20181;-64
2021/12/03 01:43:27;;;;;;;1.20;1.00;;;10.00;99.90;;;;;;5021575;28;20280;-64
2021/12/03 01:46:02;;;;;;;2.40;0.70;;;10.00;99.90;;;;;;5005845;28;20224;-64
2021/12/03 01:48:30;;;;;;;2.40;0.87;;;10.10;99.90;;;;;;5007238;28;20549;-64
2021/12/03 01:50:57;;;;;;;2.27;0.70;;;10.10;99.90;;;;;;5005658;28;20180;-64
2021/12/03 01:53:29;;;;;;;1.23;0.80;;;10.20;99.90;;;;;;5004864;28;20196;-64
2021/12/03 01:56:02;;;;;;;1.50;0.80;;;10.20;99.90;;;;;;5006774;28;20200;-64
2021/12/03 01:58:29;;;;;;;3.87;0.80;;;10.20;99.90;;;;;;5005031;28;20223;-67
2021/12/03 02:01:01;;;;;;;3.23;0.90;;;10.20;99.90;;;;;;5004429;28;20197;-67
2021/12/03 02:03:34;;;;;;;2.97;0.87;;;10.20;99.90;;;;;;5006339;28;20235;-67
2021/12/03 02:06:02;;;;;;;2.80;0.90;;;10.20;99.90;;;;;;4993633;28;20185;-67
2021/12/03 02:08:28;;;;;;;1.90;0.80;;;10.20;99.90;;;;;;5020640;28;20203;-67
2021/12/03 02:10:56;;;;;;;1.93;0.80;;;10.20;99.90;;;;;;4985945;28;20668;-66
2021/12/03 02:13:22;;;;;;;1.53;0.90;;;10.10;99.90;;;;;;5005015;28;20192;-66
2021/12/03 02:15:50;;;;;;;1.43;0.60;;;10.10;99.90;;;;;;5036227;28;20180;-66
2021/12/03 02:18:18;;;;;;;2.17;0.90;;;10.00;99.90;;;;;;5036282;28;20243;-67
2021/12/03 02:20:49;;;;;;;4.47;0.90;;;10.00;99.90;;;;;;5005272;28;20196;-66
2021/12/03 02:23:18;;;;;;;2.93;0.80;;;10.00;99.90;;;;;;5004055;28;20661;-67
2021/12/03 02:25:47;;;;;;;1.97;0.77;;;10.10;99.90;;;;;;5005087;28;20192;-67
2021/12/03 02:28:16;;;;;;;2.53;0.80;;;10.10;99.90;;;;;;5018068;28;20303;-66
2021/12/03 02:30:44;;;;;;;1.50;1.00;;;10.20;99.90;;;;;;5001532;28;20193;-66
2021/12/03 02:33:11;;;;;;;1.77;0.80;;;10.20;99.90;;;;;;5005965;28;20228;-66
2021/12/03 02:35:40;;;;;;;2.27;0.93;;;10.20;99.90;;;;;;5005597;28;20594;-66
2021/12/03 02:38:08;;;;;;;2.43;0.80;;;10.20;99.90;;;;;;5037528;28;20196;-66
2021/12/03 02:40:34;;;;;;;3.00;1.00;;;10.20;99.90;;;;;;5004696;28;20196;-66
2021/12/03 02:43:01;;;;;;;2.97;0.90;;;10.20;99.90;;;;;;5005734;28;20192;-66
2021/12/03 02:45:27;;;;;;;3.03;0.90;;;10.20;99.90;;;;;;5005811;28;20308;-66
2021/12/03 02:47:53;;;;;;;1.40;0.97;;;10.30;99.90;;;;;;5004374;28;20863;-66
2021/12/03 02:50:20;;;;;;;0.97;0.70;;;10.20;99.90;;;;;;5020801;28;20192;-66
2021/12/03 02:52:50;;;;;;;1.63;0.70;;;10.20;99.90;;;;;;5019885;28;20197;-66
2021/12/03 02:55:17;;;;;;;2.20;0.93;;;10.20;99.90;;;;;;5014651;28;20581;-66
2021/12/03 02:57:44;;;;;;;2.33;0.67;;;10.20;99.90;;;;;;5006415;28;20197;-66
2021/12/03 03:00:14;;;;;;;1.77;0.77;;;10.20;99.90;;;;;;5002872;28;20254;-67
2021/12/03 03:02:41;;;;;;;1.33;0.80;;;10.20;99.90;;;;;;5003727;28;20199;-66
2021/12/03 03:05:11;;;;;;;1.67;0.83;;;10.20;99.90;;;;;;5001188;28;20197;-67
2021/12/03 03:07:38;;;;;;;5.07;1.20;;;10.30;99.90;;;;;;5007280;28;20279;-67
2021/12/03 03:10:10;;;;;;;2.67;0.90;;;10.30;99.90;;;;;;5040589;28;20193;-67
2021/12/03 03:12:38;;;;;;;1.30;0.63;;;10.20;99.90;;;;;;5009138;28;20192;-67
2021/12/03 03:15:07;;;;;;;2.40;0.67;;;10.20;99.90;;;;;;5008682;28;20629;-67
2021/12/03 03:17:34;;;;;;;1.00;0.60;;;10.20;99.90;;;;;;5009582;28;20312;-67
2021/12/03 03:20:02;;;;;;;1.17;0.67;;;10.20;99.90;;;;;;5008822;28;20673;-67
2021/12/03 03:22:29;;;;;;;1.80;0.60;;;10.20;99.90;;;;;;5008142;28;20218;-67
2021/12/03 03:24:59;;;;;;;2.00;0.97;;;10.30;99.90;;;;;;5007839;28;20577;-65
2021/12/03 03:27:30;;;;;;;2.13;0.73;;;10.20;99.90;;;;;;5009254;28;20221;-64
2021/12/03 03:29:58;;;;;;;2.73;0.80;;;10.20;99.90;;;;;;5009162;28;20856;-64
2021/12/03 03:32:25;;;;;;;2.13;0.67;;;10.20;99.90;;;;;;5008371;28;20196;-64
2021/12/03 03:34:51;;;;;;;0.73;0.50;;;10.20;99.90;;;;;;5009110;28;21043;-64
2021/12/03 03:37:18;;;;;;;0.73;0.60;;;10.10;99.90;;;;;;5009293;28;20668;-65
2021/12/03 03:39:45;;;;;;;3.83;1.10;;;10.10;99.90;;;;;;5008174;28;20212;-64
2021/12/03 03:42:12;;;;;;;2.50;0.50;;;10.10;99.90;;;;;;5007015;28;20819;-64
2021/12/03 03:44:40;;;;;;;3.30;0.90;;;10.20;99.90;;;;;;5008416;28;20189;-64
2021/12/03 03:47:08;;;;;;;2.13;0.67;;;10.20;99.90;;;;;;5009057;28;20650;-64
2021/12/03 03:49:36;;;;;;;4.07;0.90;;;10.10;99.90;;;;;;4990539;28;20660;-64
2021/12/03 03:52:05;;;;;;;2.20;0.80;;;10.10;99.90;;;;;;5007492;28;20617;-64
2021/12/03 03:54:32;;;;;;;1.70;0.77;;;10.10;99.90;;;;;;5000686;28;20737;-64
2021/12/03 03:56:59;;;;;;;5.00;1.10;;;10.20;99.90;;;;;;5007842;28;20570;-64
2021/12/03 03:59:26;;;;;;;1.27;0.60;;;10.30;99.90;;;;;;5007494;28;20340;-65
2021/12/03 04:01:53;;;;;;;4.47;0.60;;;10.30;99.90;;;;;;5007396;28;20555;-64
2021/12/03 04:04:21;;;;;;;1.73;0.67;;;10.30;99.90;;;;;;5008938;28;20204;-67
2021/12/03 04:06:50;;;;;;;1.87;0.70;;;10.30;99.90;;;;;;5006869;28;20838;-66
2021/12/03 04:09:18;;;;;;;0.87;0.63;;;10.30;99.90;;;;;;5007440;28;20235;-66
2021/12/03 04:11:44;;;;;;;3.77;0.80;;;10.30;99.90;;;;;;4995767;28;20287;-67
2021/12/03 04:14:11;;;;;;;1.53;0.90;;;10.20;99.90;;;;;;5021787;28;20244;-67
2021/12/03 04:16:38;;;;;;;2.33;0.97;;;10.20;99.90;;;;;;5008303;28;20212;-67
2021/12/03 04:19:04;;;;;;;1.13;0.70;;;10.20;99.90;;;;;;5005606;28;20235;-67
2021/12/03 04:21:30;;;;;;;1.57;0.70;;;10.20;99.90;;;;;;5037577;28;20188;-67
2021/12/03 04:23:57;;;;;;;2.57;0.80;;;10.30;99.90;;;;;;5007743;28;20869;-67
2021/12/03 04:26:23;;;;;;;1.83;0.70;;;10.20;99.90;;;;;;5005973;28;20208;-67
2021/12/03 04:28:50;;;;;;;0.90;0.57;;;10.30;99.90;;;;;;5022712;28;20913;-67
2021/12/03 04:31:16;;;;;;;1.20;0.70;;;10.30;99.90;;;;;;4989600;28;20185;-67
2021/12/03 04:33:42;;;;;;;0.83;0.60;;;10.30;99.90;;;;;;5006861;28;20271;-67
2021/12/03 04:36:09;;;;;;;3.83;0.83;;;10.30;99.90;;;;;;5008227;28;20307;-67
2021/12/03 04:38:35;;;;;;;1.77;0.80;;;10.20;99.90;;;;;;5039548;28;20197;-67
2021/12/03 04:41:03;;;;;;;1.70;0.73;;;10.30;99.90;;;;;;5006193;28;20267;-67
2021/12/03 04:43:30;;;;;;;2.30;0.80;;;10.30;99.90;;;;;;5007626;28;20204;-67
2021/12/03 04:45:57;;;;;;;1.63;0.70;;;10.30;99.90;;;;;;5039428;28;20534;-67
2021/12/03 04:48:23;;;;;;;2.47;0.63;;;10.30;99.90;;;;;;5007621;28;20192;-65
2021/12/03 04:50:50;;;;;;;2.13;0.80;;;10.30;99.90;;;;;;5007321;28;20192;-65
2021/12/03 04:53:19;;;;;;;1.77;0.83;;;10.30;99.90;;;;;;5007150;28;20693;-65
2021/12/03 04:55:47;;;;;;;3.20;0.80;;;10.30;99.90;;;;;;5006673;28;20193;-65
2021/12/03 04:58:14;;;;;;;4.00;0.70;;;10.30;99.90;;;;;;5007155;28;20192;-65
2021/12/03 05:00:51;;;;;;;3.37;0.90;;;10.40;99.90;;;;;;5001679;28;20535;-65
2021/12/03 05:03:18;;;;;;;2.50;0.60;;;10.40;99.90;;;;;;5007030;28;20199;-65
2021/12/03 05:05:55;;;;;;;1.47;0.87;;;10.50;99.90;;;;;;5007103;28;20275;-65
2021/12/03 05:08:27;;;;;;;2.93;0.90;;;10.50;99.90;;;;;;5007150;28;20196;-65
2021/12/03 05:10:55;;;;;;;3.57;1.30;;;10.50;99.90;;;;;;5006836;28;20197;-65
2021/12/03 05:13:32;;;;;;;4.47;1.40;;;10.60;99.90;;;;;;5007345;28;20216;-65
2021/12/03 05:16:00;;;;;;;8.23;1.50;;;10.60;99.90;;;;;;5005748;28;20622;-65
2021/12/03 05:18:29;;;;;;;1.80;1.10;;;10.70;99.90;;;;;;5007849;28;20197;-65
2021/12/03 05:20:59;;;;;;;1.93;1.00;;;10.70;99.90;;;;;;5004526;28;20283;-65
2021/12/03 05:23:29;;;;;;;3.63;0.77;;;10.90;99.90;;;;;;5002375;28;20581;-65
2021/12/03 05:25:55;;;;;;;2.43;0.80;;;10.90;99.90;;;;;;5039032;28;20260;-66
2021/12/03 05:28:24;;;;;;;1.27;0.70;;;10.90;99.90;;;;;;5006596;28;20215;-66
2021/12/03 05:30:50;;;;;;;2.07;0.90;;;11.00;99.90;;;;;;5006064;28;20311;-66
2021/12/03 05:33:17;;;;;;;2.37;1.00;;;11.10;99.90;;;;;;4997642;28;20210;-65
2021/12/03 05:35:44;;;;;;;3.37;0.93;;;11.10;99.90;;;;;;5006811;28;20197;-66
2021/12/03 05:38:10;;;;;;;5.93;1.00;;;11.20;99.90;;;;;;5007048;28;20235;-66
2021/12/03 05:40:36;;;;;;;1.80;0.80;;;11.20;99.90;;;;;;5006127;28;20260;-65
2021/12/03 05:43:03;;;;;;;2.70;0.97;;;11.30;99.90;;;;;;4997363;28;20201;-65
2021/12/03 05:45:33;;;;;;;1.87;1.10;;;11.40;99.90;;;;;;5004366;28;20288;-65
2021/12/03 05:48:02;;;;;;;1.80;0.80;;;11.40;99.90;;;;;;5007065;28;20209;-65
2021/12/03 05:50:29;;;;;;;1.13;0.73;;;11.50;99.90;;;;;;5006935;28;20189;-64
2021/12/03 05:52:57;;;;;;;2.40;0.77;;;11.50;99.90;;;;;;5006371;28;20192;-65
2021/12/03 05:55:24;;;;;;;2.60;1.13;;;11.60;99.90;;;;;;5009884;28;20217;-65
2021/12/03 05:57:51;;;;;;;1.17;0.70;;;11.60;99.90;;;;;;5005127;28;20561;-65
2021/12/03 06:00:24;;;;;;;1.57;0.80;;;11.70;99.90;;;;;;5004506;28;20197;-65
2021/12/03 06:02:52;;;;;;;3.37;0.80;;;11.70;99.90;;;;;;5036598;28;20192;-65
2021/12/03 06:05:22;;;;;;;2.97;0.60;;;11.80;99.90;;;;;;4995949;28;20189;-65
2021/12/03 06:07:49;;;;;;;1.50;0.60;;;11.80;99.90;;;;;;5007080;28;20192;-65
2021/12/03 06:10:15;;;;;;;7.70;1.07;;;11.90;99.90;;;;;;5005648;28;20991;-65
2021/12/03 06:12:42;;;;;;;4.20;0.70;;;12.00;99.90;;;;;;5005823;28;20223;-65
2021/12/03 06:15:09;;;;;;;1.40;0.70;;;12.00;99.90;;;;;;5001504;28;20268;-65
2021/12/03 06:17:35;;;;;;;1.10;0.60;;;12.10;99.90;;;;;;5004777;28;20197;-64
2021/12/03 06:20:03;;;;;;;2.67;0.40;;;12.10;99.90;;;;;;5006103;28;20236;-65
2021/12/03 06:22:30;;;;;;;2.00;0.70;;;12.20;99.90;;;;;;5003942;28;20224;-65
2021/12/03 06:24:56;;;;;;;2.30;0.70;;;12.20;99.90;;;;;;4987355;28;20192;-65
2021/12/03 06:27:29;;;;;;;0.50;0.50;;;12.30;99.90;;;;;;5006153;28;20359;-66
2021/12/03 06:29:57;;;;;;;1.67;0.80;;;12.30;99.90;;;;;;5021441;28;20895;-66
2021/12/03 06:32:23;;;;;;;3.83;0.60;;;12.40;99.90;;;;;;5004779;28;20641;-66
2021/12/03 06:34:51;;;;;;;3.83;1.37;;;12.50;99.90;;;;;;5004293;28;20605;-66
2021/12/03 06:37:17;;;;;;;2.10;0.70;;;12.50;99.90;;;;;;5005024;28;20287;-66
2021/12/03 06:39:43;;;;;;;0.60;0.50;;;12.60;99.90;;;;;;5005932;28;20909;-66
2021/12/03 06:42:10;;;;;;;4.00;0.70;;;12.60;99.90;;;;;;5003155;28;20193;-65
2021/12/03 06:44:36;;;;;;;0.90;0.50;;;12.70;99.90;;;;;;5005076;28;20207;-65
2021/12/03 06:47:03;;;;;;;2.03;0.90;;;12.70;99.90;;;;;;5005903;28;20299;-65
2021/12/03 06:49:32;;;;;;;2.43;0.57;;;12.80;99.90;;;;;;5004665;28;20196;-66
2021/12/03 06:52:05;;;;;;;1.23;0.60;;;12.80;99.90;;;;;;4999761;28;20830;-66
2021/12/03 06:54:33;;;;;;;2.13;0.83;;;12.80;99.90;;;;;;4987440;28;20272;-65
2021/12/03 06:57:05;;;;;;;3.20;0.83;;;12.80;99.90;;;;;;5000401;28;20656;-67
2021/12/03 06:59:32;;;;;;;2.13;0.70;;;12.90;99.90;;;;;;5020999;28;20602;-64
2021/12/03 07:01:59;;;;;;;0.57;0.40;;;12.90;99.90;;;;;;5001039;28;20196;-64
2021/12/03 07:04:26;;;;;;;2.43;0.63;;;13.00;99.90;;;;;;4996475;28;20238;-64
2021/12/03 07:06:52;;;;;;;0.93;0.40;;;13.00;99.90;;;;;;5004566;28;20650;-64
2021/12/03 07:09:19;;;;;;;3.20;0.60;;;13.00;99.90;;;;;;5006323;28;20185;-64
2021/12/03 07:11:46;;;;;;;3.20;0.63;;;13.10;99.90;;;;;;5004383;28;20279;-64
2021/12/03 07:14:13;;;;;;;1.53;0.80;;;13.10;99.90;;;;;;5036909;28;20255;-64
2021/12/03 07:16:40;;;;;;;3.83;0.70;;;13.10;99.90;;;;;;5004507;28;20281;-64
2021/12/03 07:19:06;;;;;;;5.53;2.20;;;13.20;99.90;;;;;;5005071;28;20201;-64
2021/12/03 07:21:33;;;;;;;7.13;2.27;;;13.20;99.90;;;;;;5005343;28;20193;-64
2021/12/03 07:23:59;;;;;;;6.20;2.33;;;13.20;99.90;;;;;;5004999;28;20579;-64
2021/12/03 07:26:26;;;;;;;6.30;2.53;;;13.20;99.90;;;;;;5005192;28;20197;-64
2021/12/03 07:28:54;;;;;;;4.60;2.60;;;13.30;99.90;;;;;;5036228;28;20737;-64
2021/12/03 07:31:20;;;;;;;7.83;2.90;;;13.30;99.90;;;;;;5003886;28;20573;-64
2021/12/03 07:33:48;;;;;;;4.73;2.83;;;13.30;99.90;;;;;;5004801;28;20721;-64
2021/12/03 07:36:14;;;;;;;5.63;1.83;;;13.30;99.90;;;;;;5005048;28;20685;-64
2021/12/03 07:38:41;;;;;;;7.13;1.70;;;13.40;99.90;;;;;;5005416;28;20274;-65
2021/12/03 07:41:07;;;;;;;3.80;1.97;;;13.40;99.90;;;;;;5002619;28;20189;-65
2021/12/03 07:43:33;;;;;;;3.03;1.27;;;13.50;99.90;;;;;;5011127;28;20193;-64
2021/12/03 07:46:01;;;;;;;3.03;1.40;;;13.50;99.90;;;;;;5004954;28;20197;-65
2021/12/03 07:48:28;;;;;;;2.43;1.20;;;13.50;99.90;;;;;;5036547;28;20220;-65
2021/12/03 07:50:56;;;;;;;1.80;0.60;;;13.60;99.90;;;;;;5004101;28;20189;-65
2021/12/03 07:53:24;;;;;;;3.97;1.47;;;13.60;99.90;;;;;;5016150;28;20200;-65
2021/12/03 07:55:52;;;;;;;2.73;0.57;;;13.60;99.90;;;;;;5013336;28;20678;-65
2021/12/03 07:58:19;;;;;;;0.60;0.40;;;13.60;99.90;;;;;;5037628;28;20337;-65
2021/12/03 08:00:47;;;;;;;1.20;0.47;;;13.70;99.90;;;;;;5034062;28;20570;-65
2021/12/03 08:03:13;;;;;;;0.53;0.40;;;13.70;99.90;;;;;;5007152;28;20207;-65
2021/12/03 08:05:40;;;;;;;0.50;0.50;;;13.70;99.90;;;;;;5007985;28;20821;-65
2021/12/03 08:08:08;;;;;;;4.37;0.43;;;13.80;99.90;;;;;;5006607;28;21032;-66
2021/12/03 08:10:35;;;;;;;1.17;0.50;;;13.80;99.90;;;;;;5005028;28;20193;-66
2021/12/03 08:13:02;;;;;;;0.70;0.40;;;13.80;99.90;;;;;;5006236;28;20197;-66
2021/12/03 08:15:30;;;;;;;2.50;0.40;;;13.80;99.90;;;;;;5020782;28;20232;-66
2021/12/03 08:17:56;;;;;;;3.50;0.50;;;13.80;99.90;;;;;;5002286;28;20208;-66
2021/12/03 08:20:22;;;;;;;1.90;0.77;;;13.90;99.90;;;;;;5006295;28;20208;-66
2021/12/03 08:22:49;;;;;;;5.30;0.67;;;13.90;99.90;;;;;;5005917;28;20685;-66
2021/12/03 08:25:15;;;;;;;2.63;0.80;;;14.00;99.90;;;;;;5038643;28;20553;-65
2021/12/03 08:27:41;;;;;;;1.13;0.40;;;14.00;99.90;;;;;;5005445;28;20224;-66
2021/12/03 08:30:10;;;;;;;0.90;0.50;;;14.00;99.90;;;;;;5006572;28;20197;-66
2021/12/03 08:32:37;;;;;;;1.17;0.50;;;14.10;99.90;;;;;;5007255;28;20227;-65
2021/12/03 08:35:04;;;;;;;1.33;0.60;;;14.10;99.90;;;;;;5006479;28;20236;-65
2021/12/03 08:37:31;;;;;;;0.30;0.30;;;14.20;99.90;;;;;;5006907;28;20720;-64
2021/12/03 08:39:57;;;;;;;1.20;0.50;;;14.30;99.90;;;;;;5004893;28;20262;-64
2021/12/03 08:42:23;;;;;;;3.37;0.50;;;14.30;99.90;;;;;;5004089;28;20200;-64
2021/12/03 08:44:50;;;;;;;1.60;0.73;;;14.40;99.90;;;;;;5006726;28;20207;-64
2021/12/03 08:47:17;;;;;;;4.50;0.70;;;14.40;99.90;;;;;;5007280;28;20602;-64
2021/12/03 08:54:52;;;;;;;2.20;0.40;;;14.60;99.90;;;;;;5006740;28;20219;-64
2021/12/03 08:57:24;;;;;;;1.03;0.60;;;14.60;99.90;;;;;;5005797;28;20208;-64
2021/12/03 08:59:57;;;;;;;0.77;0.60;;;14.60;99.90;;;;;;5006917;28;20380;-64
2021/12/03 09:02:26;;;;;;;1.03;0.70;;;14.60;99.90;;;;;;5004443;28;20774;-64
2021/12/03 09:04:53;;;;;;;2.57;0.53;;;14.70;99.90;;;;;;5005753;28;20199;-64
2021/12/03 09:07:20;;;;;;;1.73;0.50;;;14.70;99.90;;;;;;5006255;28;20727;-65
2021/12/03 09:09:46;;;;;;;0.83;0.70;;;14.80;99.90;;;;;;5006820;28;20193;-65
2021/12/03 09:12:13;;;;;;;3.17;0.50;;;14.80;99.90;;;;;;5002727;28;20585;-65
2021/12/03 09:15:25;;;;;;;3.07;0.60;;;14.80;99.90;;;;;;5038178;28;20665;-65
2021/12/03 09:17:46;;;;;;;1.63;0.83;;;14.80;99.90;;;;;;4999512;28;20291;-65
2021/12/03 09:21:00;;;;;;;2.67;0.70;;;14.80;99.90;;;;;;5007141;28;20189;-65
2021/12/03 09:23:11;;;;;;;1.33;0.60;;;14.90;99.90;;;;;;4998075;28;20203;-64
2021/12/03 09:25:45;;;;;;;4.37;0.70;;;15.00;99.90;;;;;;5000754;28;20203;-66
2021/12/03 09:28:13;;;;;;;6.87;1.60;;;15.00;99.90;;;;;;5005720;28;20891;-66
2021/12/03 09:30:43;;;;;;;2.43;0.80;;;15.00;99.90;;;;;;5018223;28;20257;-66
2021/12/03 09:33:15;;;;;;;1.93;0.67;;;15.10;99.90;;;;;;5005453;28;20242;-66
2021/12/03 09:35:46;;;;;;;2.13;0.80;;;15.20;99.90;;;;;;5032663;28;20217;-66
2021/12/03 09:38:13;;;;;;;3.50;0.70;;;15.10;99.90;;;;;;5003860;28;20764;-66
2021/12/03 09:40:43;;;;;;;1.67;0.63;;;15.20;99.90;;;;;;5000511;28;20193;-66
2021/12/03 09:43:10;;;;;;;3.63;0.80;;;15.30;99.90;;;;;;5002772;28;20945;-66
2021/12/03 09:45:38;;;;;;;2.97;0.70;;;15.30;99.90;;;;;;5002911;28;20678;-66
2021/12/03 09:48:28;;;;;;;3.50;0.93;;;15.40;99.90;;;;;;5004037;28;20263;-66
2021/12/03 09:50:54;;;;;;;1.97;0.70;;;15.60;99.90;;;;;;5001248;28;20383;-66
2021/12/03 09:53:32;;;;;;;4.93;0.77;;;15.60;99.90;;;;;;5000128;28;20216;-66
2021/12/03 09:55:58;;;;;;;0.73;0.50;;;15.50;99.90;;;;;;5002921;28;20194;-66
2021/12/03 10:01:10;;;;;;;3.70;0.87;;;15.50;99.90;;;;;;5035302;28;20199;-66
2021/12/03 10:04:03;;;;;;;0.70;0.60;;;15.60;99.90;;;;;;5004317;28;20220;-66
2021/12/03 10:15:36;;;;;;;1.23;0.70;;;16.00;99.90;;;;;;5030197;28;20216;-66
2021/12/03 10:18:12;;;;;;;1.53;0.83;;;16.10;99.90;;;;;;5008915;28;20521;-66
2021/12/03 10:29:26;;;;;;;4.80;0.73;;;17.60;99.90;;;;;;4998602;28;20188;-68
2021/12/03 10:35:24;;;;;;;3.37;0.90;;;19.00;99.90;;;;;;4964598;28;20809;-67
2021/12/03 10:48:42;;;;;;;3.57;0.90;;;18.60;99.90;;;;;;4999463;28;20288;-67
2021/12/03 11:25:32;;;;;;;4.30;0.80;;;17.40;99.90;;;;;;4998645;28;20260;-68
2021/12/03 12:11:16;;;;;;;2.53;0.70;;;16.70;99.90;;;;;;5007514;28;20212;-67
2021/12/03 13:46:19;;;;;;;3.27;0.90;;;15.50;99.90;;;;;;4997647;28;20192;-67
2021/12/03 14:02:36;;;;;;;2.40;0.77;;;15.40;99.90;;;;;;5030427;28;20212;-68
2021/12/03 14:37:41;;;;;;;2.03;1.00;;;14.90;99.90;;;;;;4999918;28;20193;-67
2021/12/03 14:46:04;;;;;;;2.50;1.30;;;14.70;99.90;;;;;;5004659;28;20641;-67
2021/12/03 14:49:09;;;;;;;3.90;1.37;;;14.70;99.90;;;;;;5003714;28;20200;-67
2021/12/03 15:00:27;;;;;;;2.47;1.20;;;14.50;99.90;;;;;;4996000;28;20677;-67
2021/12/03 15:06:12;;;;;;;3.60;1.30;;;14.40;99.90;;;;;;4971604;28;20193;-67
2021/12/03 15:19:22;;;;;;;3.07;1.00;;;14.30;99.90;;;;;;5040524;28;20198;-67
2021/12/03 15:30:21;;;;;;;1.83;0.90;;;14.20;99.90;;;;;;5007221;28;20836;-67
2021/12/03 15:52:18;;;;;;;3.40;1.20;;;14.10;99.90;;;;;;5004363;28;20196;-67
2021/12/03 15:57:14;;;;;;;3.40;1.10;;;14.00;99.90;;;;;;5002288;28;20192;-67
2021/12/03 16:08:06;;;;;;;2.43;1.20;;;14.00;99.90;;;;;;5008419;28;20188;-67
2021/12/03 16:13:26;;;;;;;1.97;1.03;;;14.10;99.90;;;;;;5007898;28;20206;-67
2021/12/03 16:24:59;;;;;;;2.93;1.23;;;14.20;99.90;;;;;;5007643;28;20180;-67
2021/12/03 16:51:52;;;;;;;2.60;1.60;;;13.90;99.90;;;;;;5003669;28;20220;-67
2021/12/03 16:54:26;;;;;;;2.13;1.30;;;13.80;99.90;;;;;;5007838;28;20220;-67
2021/12/03 16:56:54;;;;;;;3.23;1.37;;;13.90;99.90;;;;;;5006365;28;20653;-67
2021/12/03 16:59:22;;;;;;;4.20;1.70;;;13.90;99.90;;;;;;5005128;28;20188;-67
2021/12/03 17:01:57;;;;;;;3.27;1.63;;;13.90;99.90;;;;;;4994869;28;20196;-67
2021/12/03 18:00:22;;;;;;;6.10;1.60;;;13.30;99.90;;;;;;5004499;28;20192;-67
2021/12/03 18:02:53;;;;;;;5.53;2.00;;;13.20;99.90;;;;;;5004346;28;20181;-67
2021/12/03 18:05:30;;;;;;;5.83;1.50;;;13.10;99.90;;;;;;4988092;28;20196;-67
2021/12/03 18:08:05;;;;;;;3.53;1.50;;;13.20;99.90;;;;;;5004028;28;20203;-67
2021/12/03 18:13:36;;;;;;;5.37;1.63;;;13.30;99.90;;;;;;5000395;28;20198;-67
2021/12/03 18:43:20;;;;;;;4.27;1.70;;;13.40;99.90;;;;;;5002987;28;20197;-67
2021/12/03 18:54:24;;;;;;;4.37;1.57;;;13.40;99.90;;;;;;5004750;28;20323;-67
2021/12/03 18:56:53;;;;;;;5.93;1.60;;;13.40;99.90;;;;;;4985742;28;20274;-67
2021/12/03 18:59:21;;;;;;;5.03;1.80;;;13.40;99.90;;;;;;5004927;28;20306;-67
2021/12/03 19:01:48;;;;;;;6.80;1.60;;;13.40;99.90;;;;;;5017599;28;20268;-67
2021/12/03 19:04:32;;;;;;;2.63;1.57;;;13.40;99.90;;;;;;5001499;28;20193;-67
2021/12/03 19:07:22;;;;;;;2.17;1.53;;;13.50;99.90;;;;;;5000112;28;20182;-67
2021/12/03 19:09:54;;;;;;;4.13;1.77;;;13.50;99.90;;;;;;5004650;28;20193;-67
2021/12/03 19:12:26;;;;;;;3.37;1.93;;;13.50;99.90;;;;;;5003046;28;20291;-67
2021/12/03 19:14:57;;;;;;;2.20;1.50;;;13.40;99.90;;;;;;5003258;28;20916;-67
2021/12/03 19:17:25;;;;;;;5.17;1.40;;;13.40;99.90;;;;;;5003726;28;20634;-67
2021/12/03 19:19:56;;;;;;;4.00;1.70;;;13.40;99.90;;;;;;5003677;28;20816;-67
2021/12/03 19:22:23;;;;;;;7.63;1.40;;;13.40;99.90;;;;;;5003550;28;20193;-67
2021/12/03 19:24:55;;;;;;;2.30;1.57;;;13.40;99.90;;;;;;5004651;28;20201;-67
2021/12/03 19:27:24;;;;;;;4.43;1.70;;;13.50;99.90;;;;;;5004759;28;20204;-67
2021/12/03 19:29:57;;;;;;;4.30;1.70;;;13.50;99.90;;;;;;5002730;28;20485;-67
2021/12/03 19:32:28;;;;;;;5.20;1.63;;;13.50;99.90;;;;;;5004329;28;20201;-67
2021/12/03 19:34:55;;;;;;;2.93;1.70;;;13.50;99.90;;;;;;5032974;28;20338;-66
2021/12/03 19:37:24;;;;;;;4.33;2.00;;;13.60;99.90;;;;;;4982206;28;20197;-67
2021/12/03 19:39:52;;;;;;;5.23;1.83;;;13.60;99.90;;;;;;5002742;28;20197;-67
2021/12/03 19:42:21;;;;;;;4.23;1.90;;;13.60;99.90;;;;;;5027463;28;20227;-67
2021/12/03 19:44:55;;;;;;;2.87;1.80;;;13.60;99.90;;;;;;5002320;28;20208;-67
2021/12/03 19:47:32;;;;;;;3.47;1.50;;;13.50;99.90;;;;;;4989501;28;20188;-67
2021/12/03 19:52:42;;;;;;;3.43;1.77;;;13.60;99.90;;;;;;5003212;28;20236;-67
2021/12/03 19:55:09;;;;;;;4.10;1.80;;;13.60;99.90;;;;;;5014664;28;20596;-67
2021/12/03 19:57:35;;;;;;;5.23;1.97;;;13.60;99.90;;;;;;5037763;28;20677;-67
2021/12/03 20:00:05;;;;;;;2.93;1.57;;;13.60;99.90;;;;;;5016159;28;20231;-67
2021/12/03 20:02:32;;;;;;;3.87;1.80;;;13.60;99.90;;;;;;4983473;28;20249;-67
2021/12/03 20:04:59;;;;;;;4.23;1.50;;;13.50;99.90;;;;;;5006265;28;20410;-67
2021/12/03 20:07:26;;;;;;;2.63;1.70;;;13.50;99.90;;;;;;5006024;28;20208;-67
2021/12/03 20:10:01;;;;;;;3.83;2.23;;;13.50;99.90;;;;;;5004765;28;20270;-67
2021/12/03 20:12:31;;;;;;;6.77;2.00;;;13.50;99.90;;;;;;5004590;28;20247;-67
2021/12/03 20:14:57;;;;;;;3.90;2.33;;;13.50;99.90;;;;;;5018991;28;20944;-67
2021/12/03 20:17:29;;;;;;;4.80;2.17;;;13.50;99.90;;;;;;5005131;28;20266;-67
2021/12/03 20:19:58;;;;;;;3.47;2.43;;;13.50;99.90;;;;;;5006814;28;20221;-67
2021/12/03 20:25:17;;;;;;;9.50;2.27;;;13.50;99.90;;;;;;5006332;28;20193;-67
2021/12/03 20:27:51;;;;;;;5.87;3.20;;;13.60;99.90;;;;;;5005204;28;20212;-67
2021/12/03 20:36:00;;;;;;;4.37;2.20;;;13.60;99.90;;;;;;5004633;28;20290;-67
2021/12/03 20:38:27;;;;;;;6.87;2.13;;;13.60;99.90;;;;;;5004160;28;20203;-67
2021/12/03 20:40:57;;;;;;;5.90;1.63;;;13.60;99.90;;;;;;5003378;28;20218;-67